createdAt,value
2023-01-01T00:06:48.502Z,15.1
2023-01-01T00:21:48.499Z,14.7
2023-01-01T00:36:48.793Z,14.6
2023-01-01T00:51:48.489Z,14.5
2023-01-01T01:06:48.493Z,14.6
2023-01-01T01:21:48.453Z,14.5
2023-01-01T01:36:48.789Z,14.4
2023-01-01T01:51:48.410Z,14.3
2023-01-01T02:06:48.505Z,14.4
2023-01-01T02:21:48.499Z,14.4
2023-01-01T02:36:48.513Z,14.4
2023-01-01T02:51:48.509Z,14.2
2023-01-01T03:06:48.519Z,14.3
2023-01-01T03:21:48.528Z,14.2
2023-01-01T03:36:48.687Z,14.1
2023-01-01T03:51:48.498Z,14.1
2023-01-01T04:06:48.505Z,14.1
2023-01-01T04:21:48.538Z,14.1
2023-01-01T04:36:48.524Z,14.1
2023-01-01T04:51:48.496Z,13.8
2023-01-01T05:06:48.387Z,13.8
2023-01-01T05:21:48.516Z,13.8
2023-01-01T05:36:48.516Z,13.6
2023-01-01T05:51:48.532Z,13.7
2023-01-01T06:06:48.521Z,13.6
2023-01-01T06:21:48.529Z,13.6
2023-01-01T06:36:48.524Z,13.6
2023-01-01T06:51:48.489Z,13.4
2023-01-01T07:06:48.489Z,13.3
2023-01-01T07:21:48.513Z,12.8
2023-01-01T07:36:48.508Z,12.5
2023-01-01T07:51:48.501Z,12.7
2023-01-01T08:06:48.485Z,12.8
2023-01-01T08:21:48.503Z,12.6
2023-01-01T08:36:48.474Z,12.6
2023-01-01T08:51:48.535Z,12.6
2023-01-01T09:06:48.521Z,12.7
2023-01-01T09:21:48.503Z,12.6
2023-01-01T09:36:48.491Z,12.6
2023-01-01T09:51:52.544Z,12.9
2023-01-01T10:06:48.500Z,12.9
2023-01-01T10:21:48.498Z,12.9
2023-01-01T10:36:48.521Z,13.1
2023-01-01T10:51:48.560Z,13.1
2023-01-01T11:06:48.407Z,13.1
2023-01-01T11:21:48.523Z,13.1
2023-01-01T11:36:48.496Z,13.2
2023-01-01T11:51:48.490Z,13.3
2023-01-01T12:06:48.537Z,13.4
2023-01-01T12:21:52.602Z,13.2
2023-01-01T12:36:48.510Z,13.2
2023-01-01T12:51:48.540Z,13.2
2023-01-01T13:06:48.512Z,13.1
2023-01-01T13:21:48.525Z,13.1
2023-01-01T13:36:48.522Z,13.1
2023-01-01T13:52:05.111Z,13
2023-01-01T14:06:48.500Z,13
2023-01-01T14:21:48.493Z,13
2023-01-01T14:36:48.418Z,12.9
2023-01-01T14:51:48.519Z,12.8
2023-01-01T15:06:48.495Z,12.3
2023-01-01T15:21:48.519Z,11.9
2023-01-01T15:36:48.426Z,11.7
2023-01-01T15:51:48.516Z,11.6
2023-01-01T16:06:48.504Z,11.4
2023-01-01T16:21:48.403Z,11.2
2023-01-01T16:36:48.524Z,11.1
2023-01-01T16:51:48.496Z,11
2023-01-01T17:06:48.500Z,11
2023-01-01T17:21:48.484Z,10.9
2023-01-01T17:36:48.517Z,10.9
2023-01-01T17:51:48.496Z,10.8
2023-01-01T18:06:54.272Z,10.6
2023-01-01T18:21:48.515Z,10.8
2023-01-01T18:36:48.521Z,10.8
2023-01-01T18:51:48.537Z,10.8
2023-01-01T19:06:48.497Z,10.8
2023-01-01T19:21:51.736Z,10.8
2023-01-01T19:36:48.508Z,10.6
2023-01-01T19:51:48.486Z,10.6
2023-01-01T20:06:48.503Z,10.5
2023-01-01T20:21:48.531Z,10.6
2023-01-01T20:36:48.522Z,10.7
2023-01-01T20:51:48.521Z,10.9
2023-01-01T21:06:48.501Z,11.6
2023-01-01T21:21:48.507Z,12.1
2023-01-01T21:36:48.524Z,12.6
2023-01-01T21:51:48.493Z,12.9
2023-01-01T22:06:48.546Z,13
2023-01-01T22:21:48.508Z,13.1
2023-01-01T22:36:48.490Z,13.1
2023-01-01T22:51:48.491Z,13.3
2023-01-01T23:06:48.464Z,13.4
2023-01-01T23:21:48.524Z,13.9
2023-01-01T23:36:48.496Z,13.5
2023-01-01T23:51:48.485Z,13.8
